createdAt,value
2022-10-30T00:01:59.660Z,37.70
2022-10-30T00:07:06.208Z,41.45
2022-10-30T00:12:09.323Z,40.33
2022-10-30T00:14:40.988Z,36.30
2022-10-30T00:17:12.901Z,39.33
2022-10-30T00:19:47.104Z,35.63
2022-10-30T00:22:21.287Z,39.67
2022-10-30T00:25:00.122Z,38.20
2022-10-30T00:27:34.797Z,33.97
2022-10-30T00:30:07.183Z,37.08
2022-10-30T00:32:41.427Z,35.63
2022-10-30T00:35:13.088Z,37.85
2022-10-30T00:37:45.050Z,38.17
2022-10-30T00:40:18.200Z,35.80
2022-10-30T00:42:49.859Z,37.90
2022-10-30T00:45:21.541Z,32.70
2022-10-30T00:48:00.146Z,44.30
2022-10-30T00:50:39.495Z,36.97
2022-10-30T00:53:17.741Z,41.58
2022-10-30T00:55:56.344Z,42.38
2022-10-30T00:58:36.304Z,42.83
2022-10-30T01:01:19.981Z,37.15
2022-10-30T01:03:56.557Z,39.78
2022-10-30T01:06:34.587Z,42.55
2022-10-30T01:09:09.060Z,43.28
2022-10-30T01:14:17.381Z,40.78
2022-10-30T01:17:02.957Z,41.20
2022-10-30T01:20:03.533Z,38.50
2022-10-30T01:22:54.734Z,41.00
2022-10-30T01:25:44.595Z,40.75
2022-10-30T01:28:38.337Z,44.13
2022-10-30T01:31:50.432Z,37.92
2022-10-30T01:34:53.379Z,41.78
2022-10-30T01:37:34.040Z,38.22
2022-10-30T01:40:13.500Z,43.20
2022-10-30T01:42:52.729Z,42.50
2022-10-30T01:45:56.525Z,44.85
2022-10-30T01:48:52.673Z,38.22
2022-10-30T01:51:52.508Z,44.78
2022-10-30T01:54:58.632Z,41.50
2022-10-30T01:57:58.004Z,36.67
2022-10-30T02:00:32.335Z,41.40
2022-10-30T02:03:05.327Z,39.33
2022-10-30T02:05:48.646Z,36.78
2022-10-30T02:08:24.569Z,41.75
2022-10-30T02:10:58.255Z,38.17
2022-10-30T02:13:46.002Z,37.28
2022-10-30T02:16:19.293Z,35.65
2022-10-30T02:18:50.914Z,33.97
2022-10-30T02:21:22.549Z,33.67
2022-10-30T02:23:55.855Z,32.92
2022-10-30T02:26:27.495Z,33.80
2022-10-30T02:28:59.191Z,37.63
2022-10-30T02:31:30.883Z,35.33
2022-10-30T02:34:02.698Z,38.35
2022-10-30T02:36:38.005Z,35.38
2022-10-30T02:39:12.455Z,35.65
2022-10-30T02:41:51.181Z,35.60
2022-10-30T02:44:22.813Z,37.13
2022-10-30T02:46:54.413Z,33.17
2022-10-30T02:49:27.519Z,35.25
2022-10-30T02:51:59.360Z,40.03
2022-10-30T02:54:35.088Z,35.72
2022-10-30T02:57:10.197Z,36.75
2022-10-30T02:59:42.927Z,32.28
2022-10-30T03:02:17.388Z,32.22
2022-10-30T03:04:49.099Z,32.10
2022-10-30T03:07:20.798Z,35.10
2022-10-30T03:09:55.528Z,30.75
2022-10-30T03:12:27.125Z,33.00
2022-10-30T03:15:01.783Z,36.83
2022-10-30T03:17:33.436Z,37.50
2022-10-30T03:20:05.482Z,42.85
2022-10-30T03:22:38.504Z,40.03
2022-10-30T03:25:12.124Z,44.03
2022-10-30T03:27:52.850Z,43.83
2022-10-30T03:30:25.360Z,50.75
2022-10-30T03:32:59.106Z,52.20
2022-10-30T03:35:32.849Z,55.00
2022-10-30T03:38:04.537Z,58.17
2022-10-30T03:40:37.337Z,63.53
2022-10-30T03:43:09.540Z,90.95
2022-10-30T03:45:49.319Z,68.65
2022-10-30T03:48:24.721Z,66.60
2022-10-30T03:50:57.997Z,61.63
2022-10-30T03:53:30.191Z,59.35
2022-10-30T03:56:04.639Z,59.13
2022-10-30T03:59:00.884Z,62.92
2022-10-30T04:01:36.386Z,53.47
2022-10-30T04:04:08.310Z,56.33
2022-10-30T04:06:40.022Z,58.88
2022-10-30T04:09:19.050Z,61.70
2022-10-30T04:11:50.833Z,59.75
2022-10-30T04:14:25.251Z,68.30
2022-10-30T04:16:56.990Z,70.53
2022-10-30T04:19:28.595Z,67.28
2022-10-30T04:22:00.270Z,91.07
2022-10-30T04:24:32.088Z,56.55
2022-10-30T04:27:06.916Z,56.67
2022-10-30T04:32:10.739Z,44.75
2022-10-30T04:34:42.760Z,48.88
2022-10-30T04:37:14.553Z,44.20
2022-10-30T04:39:48.676Z,46.05
2022-10-30T04:42:25.747Z,52.15
2022-10-30T04:44:58.991Z,62.05
2022-10-30T04:47:30.940Z,46.97
2022-10-30T04:50:02.868Z,57.92
2022-10-30T04:52:37.681Z,75.75
2022-10-30T04:55:10.808Z,48.53
2022-10-30T04:57:42.969Z,38.23
2022-10-30T05:00:14.819Z,53.55
2022-10-30T05:02:46.590Z,40.83
2022-10-30T05:05:18.270Z,61.95
2022-10-30T05:07:49.910Z,53.20
2022-10-30T05:10:22.944Z,31.25
2022-10-30T05:13:00.643Z,30.95
2022-10-30T05:15:38.325Z,40.85
2022-10-30T05:18:16.059Z,51.55
2022-10-30T05:20:50.980Z,31.30
2022-10-30T05:23:25.457Z,39.90
2022-10-30T05:25:57.140Z,53.40
2022-10-30T05:28:33.340Z,69.35
2022-10-30T05:31:05.210Z,34.60
2022-10-30T05:33:58.664Z,32.50
2022-10-30T05:36:34.208Z,32.05
2022-10-30T05:39:06.734Z,30.17
2022-10-30T05:41:45.501Z,34.22
2022-10-30T05:44:34.207Z,56.63
2022-10-30T05:47:12.901Z,57.13
2022-10-30T05:49:49.449Z,48.00
2022-10-30T05:52:27.284Z,37.92
2022-10-30T05:55:03.498Z,78.90
2022-10-30T05:57:46.692Z,59.60
2022-10-30T06:00:18.413Z,69.55
2022-10-30T06:02:50.013Z,83.93
2022-10-30T06:05:21.666Z,60.80
2022-10-30T06:07:57.233Z,73.25
2022-10-30T06:10:29.357Z,110.22
2022-10-30T06:13:23.096Z,83.95
2022-10-30T06:16:16.258Z,53.45
2022-10-30T06:19:08.045Z,45.67
2022-10-30T06:21:50.100Z,45.60
2022-10-30T06:24:47.077Z,68.05
2022-10-30T06:27:44.475Z,51.05
2022-10-30T06:30:20.155Z,43.85
2022-10-30T06:33:02.693Z,48.33
2022-10-30T06:35:34.903Z,49.17
2022-10-30T06:38:08.755Z,45.88
2022-10-30T06:40:41.145Z,160.45
2022-10-30T06:43:27.792Z,53.97
2022-10-30T06:46:03.406Z,69.22
2022-10-30T06:48:36.986Z,62.08
2022-10-30T06:51:08.775Z,68.30
2022-10-30T06:56:50.611Z,36.67
2022-10-30T06:59:47.199Z,93.65
2022-10-30T07:03:02.076Z,42.78
2022-10-30T07:05:37.613Z,41.40
2022-10-30T07:10:41.568Z,44.03
2022-10-30T07:13:32.132Z,37.83
2022-10-30T07:16:22.550Z,40.65
2022-10-30T07:18:59.280Z,38.97
2022-10-30T07:21:35.835Z,40.05
2022-10-30T07:24:11.546Z,39.30
2022-10-30T07:26:55.976Z,35.30
2022-10-30T07:29:53.741Z,37.05
2022-10-30T07:32:46.225Z,38.55
2022-10-30T07:35:38.857Z,43.00
2022-10-30T07:38:28.175Z,41.45
2022-10-30T07:41:07.645Z,37.33
2022-10-30T07:43:54.417Z,37.00
2022-10-30T07:46:47.814Z,35.20
2022-10-30T07:52:14.490Z,34.42
2022-10-30T07:54:50.451Z,33.08
2022-10-30T07:57:43.178Z,32.45
2022-10-30T08:00:23.660Z,31.80
2022-10-30T08:03:05.260Z,26.70
2022-10-30T08:05:55.516Z,26.88
2022-10-30T08:08:43.108Z,30.05
2022-10-30T08:11:34.433Z,25.10
2022-10-30T08:14:07.704Z,31.23
2022-10-30T08:16:39.348Z,24.27
2022-10-30T08:19:12.368Z,27.25
2022-10-30T08:24:25.344Z,23.90
2022-10-30T08:26:58.806Z,20.90
2022-10-30T08:29:32.491Z,25.05
2022-10-30T08:32:04.649Z,18.70
2022-10-30T08:35:01.904Z,17.25
2022-10-30T08:37:39.562Z,20.10
2022-10-30T08:40:11.386Z,17.38
2022-10-30T08:43:02.939Z,18.15
2022-10-30T08:45:37.174Z,20.25
2022-10-30T08:48:16.287Z,24.08
2022-10-30T08:50:51.238Z,22.80
2022-10-30T08:53:30.873Z,20.42
2022-10-30T08:56:02.932Z,22.27
2022-10-30T08:58:46.387Z,21.60
2022-10-30T09:01:19.692Z,23.80
2022-10-30T09:04:15.588Z,22.50
2022-10-30T09:06:56.067Z,20.45
2022-10-30T09:09:48.555Z,23.80
2022-10-30T09:12:24.375Z,20.45
2022-10-30T09:14:56.008Z,22.13
2022-10-30T09:17:27.811Z,18.35
2022-10-30T09:20:00.393Z,22.77
2022-10-30T09:22:41.670Z,19.83
2022-10-30T09:25:15.923Z,19.58
2022-10-30T09:27:53.789Z,17.63
2022-10-30T09:30:28.613Z,21.40
2022-10-30T09:33:02.675Z,30.30
2022-10-30T09:35:54.660Z,29.80
2022-10-30T09:38:26.537Z,31.17
2022-10-30T09:41:18.618Z,29.48
2022-10-30T09:44:07.261Z,27.77
2022-10-30T09:47:06.332Z,30.50
2022-10-30T09:50:15.833Z,28.65
2022-10-30T09:53:50.025Z,28.40
2022-10-30T09:56:39.097Z,33.33
2022-10-30T09:59:36.351Z,31.95
2022-10-30T10:02:27.742Z,29.48
2022-10-30T10:05:20.410Z,29.45
2022-10-30T10:08:17.467Z,31.67
2022-10-30T10:11:28.896Z,34.83
2022-10-30T10:14:14.916Z,34.38
2022-10-30T10:16:54.560Z,32.60
2022-10-30T10:19:34.641Z,31.40
2022-10-30T10:22:17.406Z,36.92
2022-10-30T10:24:49.817Z,33.72
2022-10-30T10:28:09.635Z,33.17
2022-10-30T10:30:50.192Z,32.78
2022-10-30T10:33:43.380Z,32.38
2022-10-30T10:36:55.366Z,30.95
2022-10-30T10:39:46.558Z,32.63
2022-10-30T10:42:47.913Z,33.75
2022-10-30T10:45:29.461Z,34.25
2022-10-30T10:48:25.375Z,30.52
2022-10-30T10:51:33.716Z,35.75
2022-10-30T10:54:15.049Z,35.60
2022-10-30T10:56:56.011Z,32.60
2022-10-30T10:59:38.512Z,33.13
2022-10-30T11:02:32.057Z,32.58
2022-10-30T11:05:31.247Z,33.17
2022-10-30T11:08:25.329Z,30.40
2022-10-30T11:11:07.562Z,32.20
2022-10-30T11:13:45.558Z,32.05
2022-10-30T11:16:38.515Z,32.60
2022-10-30T11:19:10.104Z,39.42
2022-10-30T11:21:54.535Z,29.85
2022-10-30T11:24:34.031Z,29.55
2022-10-30T11:27:28.619Z,33.15
2022-10-30T11:30:06.127Z,30.60
2022-10-30T11:32:37.772Z,29.70
2022-10-30T11:35:09.364Z,30.30
2022-10-30T11:37:43.265Z,29.77
2022-10-30T11:40:15.004Z,29.98
2022-10-30T11:42:54.784Z,30.45
2022-10-30T11:45:37.752Z,28.38
2022-10-30T11:48:18.380Z,29.25
2022-10-30T11:50:54.875Z,29.73
2022-10-30T11:53:52.180Z,32.38
2022-10-30T11:56:23.819Z,32.95
2022-10-30T11:58:59.740Z,30.50
2022-10-30T12:01:36.847Z,31.48
2022-10-30T12:04:28.298Z,33.20
2022-10-30T12:07:28.003Z,31.88
2022-10-30T12:10:01.704Z,32.60
2022-10-30T12:12:41.919Z,31.25
2022-10-30T12:15:13.452Z,27.20
2022-10-30T12:17:53.322Z,29.40
2022-10-30T12:20:26.175Z,28.27
2022-10-30T12:23:00.632Z,30.83
2022-10-30T12:25:32.998Z,30.73
2022-10-30T12:28:06.519Z,32.67
2022-10-30T12:30:52.547Z,29.80
2022-10-30T12:33:50.362Z,32.22
2022-10-30T12:36:37.636Z,27.02
2022-10-30T12:39:19.535Z,32.45
2022-10-30T12:42:11.487Z,29.75
2022-10-30T12:44:54.452Z,31.05
2022-10-30T12:47:52.299Z,27.25
2022-10-30T12:50:27.921Z,31.73
2022-10-30T12:53:07.257Z,30.50
2022-10-30T12:55:45.214Z,33.65
2022-10-30T12:58:33.795Z,30.55
2022-10-30T13:01:12.357Z,34.33
2022-10-30T13:03:51.394Z,38.90
2022-10-30T13:06:28.543Z,30.70
2022-10-30T13:09:49.104Z,32.45
2022-10-30T13:12:30.683Z,33.38
2022-10-30T13:15:21.788Z,33.78
2022-10-30T13:20:45.414Z,32.05
2022-10-30T13:23:28.677Z,33.97
2022-10-30T13:26:13.437Z,32.92
2022-10-30T13:29:30.789Z,35.85
2022-10-30T13:32:38.684Z,34.78
2022-10-30T13:35:20.662Z,34.25
2022-10-30T13:38:14.172Z,31.83
2022-10-30T13:41:08.298Z,34.35
2022-10-30T13:44:25.188Z,33.38
2022-10-30T13:46:57.092Z,33.33
2022-10-30T13:49:57.029Z,33.38
2022-10-30T13:52:36.550Z,35.53
2022-10-30T13:55:19.341Z,35.08
2022-10-30T13:58:19.823Z,36.30
2022-10-30T14:01:56.403Z,38.13
2022-10-30T14:04:50.429Z,36.75
2022-10-30T14:07:38.998Z,32.25
2022-10-30T14:10:55.929Z,34.70
2022-10-30T14:13:56.747Z,31.33
2022-10-30T14:16:40.419Z,31.02
2022-10-30T14:19:15.038Z,32.63
2022-10-30T14:21:57.758Z,33.03
2022-10-30T14:24:44.114Z,31.92
2022-10-30T14:27:26.962Z,34.20
2022-10-30T14:30:00.255Z,33.38
2022-10-30T14:32:42.290Z,32.42
2022-10-30T14:35:38.291Z,32.83
2022-10-30T14:38:09.870Z,34.15
2022-10-30T14:40:57.086Z,33.58
2022-10-30T14:43:57.533Z,31.50
2022-10-30T14:46:57.729Z,33.53
2022-10-30T14:49:42.767Z,33.17
2022-10-30T14:52:27.288Z,35.08
2022-10-30T14:55:14.194Z,32.78
2022-10-30T14:58:05.967Z,34.35
2022-10-30T15:00:40.809Z,38.45
2022-10-30T15:03:13.517Z,35.22
2022-10-30T15:06:03.207Z,37.08
2022-10-30T15:09:26.467Z,30.15
2022-10-30T15:12:20.862Z,40.80
2022-10-30T15:14:59.500Z,36.47
2022-10-30T15:17:36.950Z,37.17
2022-10-30T15:20:25.060Z,38.47
2022-10-30T15:23:18.299Z,36.88
2022-10-30T15:25:55.723Z,34.35
2022-10-30T15:28:34.560Z,38.10
2022-10-30T15:31:18.420Z,35.83
2022-10-30T15:33:59.671Z,35.97
2022-10-30T15:36:40.896Z,36.50
2022-10-30T15:39:17.484Z,39.65
2022-10-30T15:41:56.976Z,35.10
2022-10-30T15:44:35.207Z,36.95
2022-10-30T15:47:17.048Z,37.63
2022-10-30T15:49:55.161Z,31.60
2022-10-30T15:52:29.615Z,34.80
2022-10-30T15:55:17.051Z,33.67
2022-10-30T15:58:08.906Z,36.05
2022-10-30T16:00:40.578Z,35.40
2022-10-30T16:03:14.968Z,39.17
2022-10-30T16:05:46.671Z,33.05
2022-10-30T16:08:23.725Z,35.70
2022-10-30T16:10:56.682Z,37.50
2022-10-30T16:13:30.938Z,38.45
2022-10-30T16:16:03.541Z,41.40
2022-10-30T16:18:37.075Z,40.10
2022-10-30T16:21:13.957Z,45.97
2022-10-30T16:23:52.162Z,44.72
2022-10-30T16:26:38.086Z,44.50
2022-10-30T16:29:21.208Z,41.95
2022-10-30T16:31:53.687Z,42.63
2022-10-30T16:34:34.803Z,50.80
2022-10-30T16:37:11.077Z,42.58
2022-10-30T16:39:45.736Z,39.88
2022-10-30T16:42:23.446Z,49.00
2022-10-30T16:45:24.423Z,47.47
2022-10-30T16:48:08.920Z,45.95
2022-10-30T16:53:25.952Z,44.53
2022-10-30T16:56:01.652Z,42.72
2022-10-30T16:58:33.382Z,45.22
2022-10-30T17:01:06.708Z,52.28
2022-10-30T17:03:46.563Z,45.22
2022-10-30T17:06:27.260Z,49.00
2022-10-30T17:09:00.937Z,46.20
2022-10-30T17:11:44.531Z,45.60
2022-10-30T17:14:22.001Z,49.25
2022-10-30T17:16:56.441Z,53.92
2022-10-30T17:19:33.922Z,46.95
2022-10-30T17:22:14.352Z,50.58
2022-10-30T17:24:47.679Z,46.92
2022-10-30T17:27:49.345Z,51.42
2022-10-30T17:30:39.316Z,43.38
2022-10-30T17:33:37.874Z,48.17
2022-10-30T17:36:09.578Z,46.80
2022-10-30T17:38:41.166Z,50.17
2022-10-30T17:41:16.922Z,47.90
2022-10-30T17:43:51.628Z,42.65
2022-10-30T17:46:25.536Z,49.13
2022-10-30T17:48:59.126Z,42.58
2022-10-30T17:51:32.388Z,48.63
2022-10-30T17:54:10.006Z,52.58
2022-10-30T17:56:42.126Z,53.08
2022-10-30T17:59:16.158Z,50.20
2022-10-30T18:01:50.766Z,53.35
2022-10-30T18:06:53.991Z,53.97
2022-10-30T18:09:25.589Z,52.53
2022-10-30T18:11:57.181Z,49.25
2022-10-30T18:14:28.820Z,55.72
2022-10-30T18:17:00.529Z,54.05
2022-10-30T18:19:35.235Z,52.45
2022-10-30T18:22:06.875Z,54.72
2022-10-30T18:24:38.931Z,53.92
2022-10-30T18:27:10.561Z,45.78
2022-10-30T18:29:42.148Z,55.58
2022-10-30T18:32:14.779Z,58.65
2022-10-30T18:34:46.406Z,59.30
2022-10-30T18:37:18.058Z,54.80
2022-10-30T18:39:49.669Z,62.65
2022-10-30T18:42:24.145Z,70.47
2022-10-30T18:44:58.024Z,68.03
2022-10-30T18:47:29.636Z,65.10
2022-10-30T18:50:01.276Z,71.78
2022-10-30T18:52:33.147Z,76.78
2022-10-30T18:55:39.376Z,77.40
2022-10-30T18:58:11.940Z,74.85
2022-10-30T19:01:10.439Z,85.90
2022-10-30T19:03:42.037Z,77.20
2022-10-30T19:06:22.334Z,75.00
2022-10-30T19:08:55.243Z,74.93
2022-10-30T19:11:30.257Z,71.68
2022-10-30T19:14:05.981Z,71.30
2022-10-30T19:16:37.603Z,77.55
2022-10-30T19:19:09.497Z,78.53
2022-10-30T19:21:41.143Z,75.00
2022-10-30T19:24:15.149Z,76.43
2022-10-30T19:26:48.005Z,73.90
2022-10-30T19:29:19.604Z,69.47
2022-10-30T19:31:53.935Z,68.68
2022-10-30T19:34:25.574Z,72.43
2022-10-30T19:36:57.223Z,66.60
2022-10-30T19:39:28.881Z,68.47
2022-10-30T19:42:00.511Z,67.82
2022-10-30T19:44:32.107Z,67.40
2022-10-30T19:47:03.726Z,73.75
2022-10-30T19:49:35.353Z,68.20
2022-10-30T19:52:06.988Z,67.13
2022-10-30T19:54:38.582Z,65.78
2022-10-30T19:57:13.842Z,73.93
2022-10-30T19:59:45.472Z,63.35
2022-10-30T20:02:17.189Z,71.00
2022-10-30T20:04:48.931Z,71.93
2022-10-30T20:07:20.606Z,68.85
2022-10-30T20:09:52.221Z,67.70
2022-10-30T20:12:23.860Z,63.22
2022-10-30T20:14:58.427Z,67.82
2022-10-30T20:20:01.498Z,65.10
2022-10-30T20:22:33.132Z,67.90
2022-10-30T20:25:05.099Z,65.07
2022-10-30T20:27:43.195Z,73.00
2022-10-30T20:30:32.733Z,65.88
2022-10-30T20:33:12.142Z,66.85
2022-10-30T20:35:43.757Z,69.20
2022-10-30T20:38:22.200Z,77.00
2022-10-30T20:40:54.344Z,72.80
2022-10-30T20:43:31.792Z,68.63
2022-10-30T20:46:06.027Z,68.47
2022-10-30T20:48:38.077Z,66.15
2022-10-30T20:51:11.254Z,59.90
2022-10-30T20:53:42.888Z,64.43
2022-10-30T20:56:16.762Z,63.20
2022-10-30T20:58:48.392Z,62.55
2022-10-30T21:01:20.120Z,69.93
2022-10-30T21:03:53.774Z,70.95
2022-10-30T21:06:30.197Z,69.18
2022-10-30T21:09:01.840Z,67.90
2022-10-30T21:11:33.749Z,65.18
2022-10-30T21:14:05.400Z,67.57
2022-10-30T21:16:39.928Z,59.35
2022-10-30T21:21:45.412Z,67.55
2022-10-30T21:24:17.132Z,63.35
2022-10-30T21:26:48.706Z,67.63
2022-10-30T21:29:20.315Z,67.55
2022-10-30T21:31:51.903Z,58.25
2022-10-30T21:34:23.579Z,67.43
2022-10-30T21:36:55.194Z,69.72
2022-10-30T21:39:26.820Z,65.82
2022-10-30T21:41:58.496Z,60.17
2022-10-30T21:44:30.170Z,68.32
2022-10-30T21:47:04.661Z,73.45
2022-10-30T21:49:39.711Z,77.10
2022-10-30T21:52:14.364Z,73.18
2022-10-30T21:57:17.364Z,71.90
2022-10-30T21:59:48.967Z,69.85
2022-10-30T22:02:20.612Z,67.10
2022-10-30T22:04:52.263Z,69.25
2022-10-30T22:07:24.163Z,74.35
2022-10-30T22:09:58.796Z,75.07
2022-10-30T22:15:01.969Z,77.50
2022-10-30T22:17:34.960Z,78.30
2022-10-30T22:20:08.828Z,79.07
2022-10-30T22:22:48.829Z,71.50
2022-10-30T22:25:23.530Z,81.35
2022-10-30T22:30:26.605Z,84.45
2022-10-30T22:32:59.450Z,77.88
2022-10-30T22:35:31.253Z,73.63
2022-10-30T22:38:06.966Z,70.63
2022-10-30T22:40:38.774Z,67.57
2022-10-30T22:43:10.435Z,75.72
2022-10-30T22:45:47.233Z,72.88
2022-10-30T22:48:21.904Z,71.68
2022-10-30T22:53:37.619Z,69.95
2022-10-30T22:56:23.787Z,68.47
2022-10-30T22:58:56.441Z,71.70
2022-10-30T23:01:32.489Z,69.57
2022-10-30T23:04:05.422Z,74.80
2022-10-30T23:06:37.614Z,62.88
2022-10-30T23:09:16.068Z,71.88
2022-10-30T23:11:50.994Z,80.05
2022-10-30T23:14:26.945Z,81.32
2022-10-30T23:16:59.931Z,82.47
2022-10-30T23:19:31.568Z,92.78
2022-10-30T23:22:03.219Z,94.53
2022-10-30T23:24:34.787Z,101.60
2022-10-30T23:27:06.386Z,88.28
2022-10-30T23:29:37.948Z,117.72
2022-10-30T23:32:12.703Z,82.60
2022-10-30T23:37:15.709Z,111.10
2022-10-30T23:39:47.597Z,89.40
2022-10-30T23:42:19.186Z,95.55
2022-10-30T23:44:50.745Z,77.88
2022-10-30T23:47:24.795Z,86.82
2022-10-30T23:49:56.428Z,81.63
2022-10-30T23:52:31.009Z,72.70
2022-10-30T23:55:02.627Z,72.63
2022-10-30T23:57:34.219Z,74.00
